Time;durP1;ratioP1;P1;durP2;ratioP2;P2;SDS_P1;SDS_P2;PMS_P1;PMS_P2;Temp;Humidity;BMP_temperature;BMP_pressure;BME280_temperature;BME280_humidity;BME280_pressure;Samples;Min_cycle;Max_cycle;Signal;HPM_P1;HPM_P2
2023/12/18 00:00:24;;;;;;;81.53;24.60;;;;;;;;;;5011744;28;20187;-66
2023/12/18 00:02:52;;;;;;;54.97;23.83;;;;;;;;;;5010550;28;20720;-65
2023/12/18 00:05:21;;;;;;;73.90;25.15;;;;;;;;;;5010950;28;20206;-63
2023/12/18 00:07:49;;;;;;;65.85;24.27;;;;;;;;;;5011605;28;20223;-64
2023/12/18 00:10:17;;;;;;;57.80;24.33;;;;;;;;;;5011793;28;20243;-64
2023/12/18 00:12:47;;;;;;;64.82;25.80;;;;;;;;;;5032278;28;20207;-64
2023/12/18 00:15:18;;;;;;;61.30;24.55;;;;;;;;;;5115761;28;20223;-66
2023/12/18 00:17:46;;;;;;;66.57;25.98;;;;;;;;;;5045192;28;20218;-65
2023/12/18 00:20:14;;;;;;;66.53;25.67;;;;;;;;;;5035027;28;20790;-64
2023/12/18 00:22:42;;;;;;;65.65;26.48;;;;;;;;;;5034446;28;20275;-65
2023/12/18 00:25:11;;;;;;;63.30;25.27;;;;;;;;;;5016285;28;20237;-67
2023/12/18 00:27:39;;;;;;;57.15;24.77;;;;;;;;;;5024053;28;20237;-65
2023/12/18 00:30:10;;;;;;;56.53;24.17;;;;;;;;;;5038602;28;20227;-67
2023/12/18 00:32:38;;;;;;;54.30;24.17;;;;;;;;;;5028007;28;20194;-64
2023/12/18 00:35:07;;;;;;;55.30;25.83;;;;;;;;;;5032658;28;20245;-63
2023/12/18 00:37:35;;;;;;;53.03;25.90;;;;;;;;;;5014121;28;20308;-65
2023/12/18 00:40:03;;;;;;;60.90;25.98;;;;;;;;;;5014330;28;20254;-64
2023/12/18 00:42:31;;;;;;;52.38;23.75;;;;;;;;;;5014666;28;20245;-66
2023/12/18 00:44:59;;;;;;;61.00;27.08;;;;;;;;;;5029814;28;20250;-64
2023/12/18 00:47:29;;;;;;;55.03;26.02;;;;;;;;;;5036778;28;20203;-66
2023/12/18 00:49:57;;;;;;;57.08;24.52;;;;;;;;;;5117916;28;20249;-64
2023/12/18 00:52:26;;;;;;;54.67;26.00;;;;;;;;;;5025406;28;20215;-66
2023/12/18 00:54:54;;;;;;;56.47;25.67;;;;;;;;;;5036493;28;20227;-66
2023/12/18 00:57:22;;;;;;;53.05;24.25;;;;;;;;;;5023694;28;20232;-65
2023/12/18 00:59:50;;;;;;;51.13;24.10;;;;;;;;;;5031495;28;20214;-64
2023/12/18 01:02:18;;;;;;;60.17;26.55;;;;;;;;;;5023507;28;20238;-66
2023/12/18 01:04:48;;;;;;;53.38;23.23;;;;;;;;;;5033354;28;20230;-65
2023/12/18 01:07:16;;;;;;;52.67;25.92;;;;;;;;;;5029437;28;20229;-66
2023/12/18 01:09:44;;;;;;;49.58;24.90;;;;;;;;;;5032375;28;20229;-66
2023/12/18 01:12:13;;;;;;;58.28;26.15;;;;;;;;;;5017131;28;20206;-66
2023/12/18 01:14:41;;;;;;;53.45;25.45;;;;;;;;;;5013940;28;20265;-66
2023/12/18 01:17:09;;;;;;;53.67;26.30;;;;;;;;;;5014031;28;20234;-66
2023/12/18 01:19:39;;;;;;;56.53;24.08;;;;;;;;;;5014684;28;20230;-64
2023/12/18 01:22:09;;;;;;;55.28;23.67;;;;;;;;;;5019697;28;20253;-64
2023/12/18 01:24:37;;;;;;;61.85;26.02;;;;;;;;;;5014863;28;20245;-64
2023/12/18 01:27:06;;;;;;;68.82;28.27;;;;;;;;;;5014305;28;20215;-65
2023/12/18 01:29:34;;;;;;;62.78;26.77;;;;;;;;;;5013952;28;20186;-64
2023/12/18 01:32:02;;;;;;;52.42;25.10;;;;;;;;;;5020947;28;20222;-65
2023/12/18 01:34:30;;;;;;;55.75;25.40;;;;;;;;;;5033168;28;20222;-65
2023/12/18 01:36:59;;;;;;;52.53;25.02;;;;;;;;;;5025523;28;20240;-64
2023/12/18 01:39:28;;;;;;;56.47;26.95;;;;;;;;;;5013582;28;20264;-65
2023/12/18 01:41:56;;;;;;;54.78;24.58;;;;;;;;;;5014022;28;20288;-65
2023/12/18 01:44:25;;;;;;;57.70;26.25;;;;;;;;;;5013926;28;20230;-64
2023/12/18 01:46:53;;;;;;;64.20;24.75;;;;;;;;;;5021407;28;20233;-66
2023/12/18 01:49:21;;;;;;;52.88;24.30;;;;;;;;;;5038426;28;20241;-65
2023/12/18 01:51:50;;;;;;;55.97;25.20;;;;;;;;;;5025878;28;20236;-64
2023/12/18 01:54:19;;;;;;;59.75;28.92;;;;;;;;;;5031409;28;20234;-66
2023/12/18 01:56:50;;;;;;;54.63;25.63;;;;;;;;;;5033637;28;20213;-64
2023/12/18 01:59:18;;;;;;;64.93;26.85;;;;;;;;;;5028589;28;20203;-64
2023/12/18 02:01:49;;;;;;;61.65;26.60;;;;;;;;;;5013013;28;20207;-65
2023/12/18 02:04:17;;;;;;;61.78;26.17;;;;;;;;;;5014825;28;20652;-65
2023/12/18 02:06:46;;;;;;;60.60;27.02;;;;;;;;;;5014508;28;20241;-64
2023/12/18 02:09:15;;;;;;;55.20;27.58;;;;;;;;;;5048698;28;20234;-65
2023/12/18 02:11:45;;;;;;;57.10;24.73;;;;;;;;;;5067566;28;20217;-67
2023/12/18 02:14:14;;;;;;;71.43;27.65;;;;;;;;;;5017632;28;20228;-65
2023/12/18 02:16:42;;;;;;;69.25;26.08;;;;;;;;;;5032348;28;20209;-65
2023/12/18 02:19:22;;;;;;;73.32;30.42;;;;;;;;;;5032762;28;20225;-66
2023/12/18 02:21:50;;;;;;;76.60;27.63;;;;;;;;;;5023664;28;20273;-64
2023/12/18 02:24:20;;;;;;;62.47;27.27;;;;;;;;;;5013736;28;20254;-65
2023/12/18 02:26:48;;;;;;;73.22;26.98;;;;;;;;;;5012973;28;20234;-66
2023/12/18 02:29:17;;;;;;;70.43;29.25;;;;;;;;;;5032629;28;20334;-65
2023/12/18 02:31:45;;;;;;;65.65;26.58;;;;;;;;;;5025971;28;20213;-64
2023/12/18 02:34:13;;;;;;;56.95;28.23;;;;;;;;;;5032277;28;20202;-65
2023/12/18 02:36:41;;;;;;;66.03;28.48;;;;;;;;;;5030638;28;20225;-66
2023/12/18 02:39:09;;;;;;;69.03;28.70;;;;;;;;;;5048919;28;20203;-66
2023/12/18 02:41:39;;;;;;;63.15;26.35;;;;;;;;;;5114879;28;20217;-64
2023/12/18 02:44:10;;;;;;;65.65;28.25;;;;;;;;;;5041643;28;20226;-66
2023/12/18 02:46:38;;;;;;;61.83;27.67;;;;;;;;;;5014072;28;20222;-65
2023/12/18 02:49:07;;;;;;;68.55;28.90;;;;;;;;;;5014365;28;20221;-65
2023/12/18 02:51:35;;;;;;;61.90;26.73;;;;;;;;;;5015915;28;20213;-64
2023/12/18 02:54:06;;;;;;;67.82;28.95;;;;;;;;;;5031207;28;20247;-64
2023/12/18 02:56:34;;;;;;;67.32;28.00;;;;;;;;;;5018217;28;20226;-64
2023/12/18 02:59:04;;;;;;;59.55;28.35;;;;;;;;;;5030887;28;20226;-65
2023/12/18 03:01:32;;;;;;;55.22;28.20;;;;;;;;;;5011848;28;20225;-66
2023/12/18 03:04:00;;;;;;;64.55;28.83;;;;;;;;;;5011795;28;20230;-65
2023/12/18 03:06:29;;;;;;;62.50;28.35;;;;;;;;;;5012365;28;20178;-66
2023/12/18 03:08:57;;;;;;;70.45;29.88;;;;;;;;;;5023760;28;20210;-65
2023/12/18 03:11:25;;;;;;;57.28;30.33;;;;;;;;;;5046059;28;20191;-65
2023/12/18 03:13:53;;;;;;;75.13;32.78;;;;;;;;;;5012676;28;20211;-65
2023/12/18 03:16:22;;;;;;;59.63;29.00;;;;;;;;;;5013462;28;20199;-64
2023/12/18 03:18:50;;;;;;;64.70;28.58;;;;;;;;;;5014670;28;20210;-65
2023/12/18 03:21:18;;;;;;;63.40;29.67;;;;;;;;;;5029259;28;20201;-65
2023/12/18 03:23:46;;;;;;;66.35;29.90;;;;;;;;;;5013313;28;20218;-67
2023/12/18 03:26:14;;;;;;;65.13;31.17;;;;;;;;;;5013693;28;20232;-67
2023/12/18 03:28:42;;;;;;;63.13;28.65;;;;;;;;;;5013427;28;20199;-67
2023/12/18 03:31:11;;;;;;;83.30;41.70;;;;;;;;;;5030641;28;20194;-65
2023/12/18 03:33:40;;;;;;;70.05;34.10;;;;;;;;;;5115335;28;20179;-65
2023/12/18 03:36:08;;;;;;;72.40;32.13;;;;;;;;;;5090510;28;20197;-65
2023/12/18 03:38:37;;;;;;;61.10;28.60;;;;;;;;;;5018517;28;20237;-64
2023/12/18 03:41:05;;;;;;;125.70;72.15;;;;;;;;;;5029761;28;20261;-64
2023/12/18 03:43:33;;;;;;;59.97;32.75;;;;;;;;;;5030566;28;20217;-66
2023/12/18 03:46:01;;;;;;;88.45;44.28;;;;;;;;;;5030934;28;20334;-66
2023/12/18 03:48:29;;;;;;;100.90;54.75;;;;;;;;;;5028280;28;20185;-65
2023/12/18 03:50:58;;;;;;;65.65;29.55;;;;;;;;;;5033639;28;20217;-65
2023/12/18 03:53:26;;;;;;;52.97;27.05;;;;;;;;;;5030711;28;20194;-64
2023/12/18 03:55:54;;;;;;;90.10;47.60;;;;;;;;;;5015299;28;20215;-65
2023/12/18 03:58:22;;;;;;;57.78;29.10;;;;;;;;;;5014900;28;20206;-64
2023/12/18 04:00:50;;;;;;;59.00;26.95;;;;;;;;;;5015222;28;20240;-65
2023/12/18 04:03:18;;;;;;;58.08;27.27;;;;;;;;;;5015188;28;20230;-65
2023/12/18 04:05:46;;;;;;;64.07;29.60;;;;;;;;;;5022432;28;20213;-65
2023/12/18 04:08:16;;;;;;;59.60;28.50;;;;;;;;;;5013865;28;20249;-64
2023/12/18 04:10:44;;;;;;;58.97;27.25;;;;;;;;;;5027914;28;20214;-64
2023/12/18 04:13:12;;;;;;;59.10;27.55;;;;;;;;;;5033568;28;20233;-67
2023/12/18 04:15:40;;;;;;;54.38;27.48;;;;;;;;;;5034868;28;20291;-66
2023/12/18 04:18:09;;;;;;;62.40;30.27;;;;;;;;;;5034212;28;20279;-65
2023/12/18 04:20:37;;;;;;;63.70;28.45;;;;;;;;;;5035270;28;20225;-64
2023/12/18 04:23:05;;;;;;;58.03;27.67;;;;;;;;;;5020093;28;20257;-64
2023/12/18 04:25:35;;;;;;;55.83;28.63;;;;;;;;;;5014853;28;20253;-64
2023/12/18 04:28:03;;;;;;;55.10;27.10;;;;;;;;;;5014569;28;20253;-65
2023/12/18 04:30:31;;;;;;;52.63;26.38;;;;;;;;;;5015167;28;20238;-66
2023/12/18 04:33:00;;;;;;;63.13;30.75;;;;;;;;;;5058879;28;20215;-65
2023/12/18 04:35:28;;;;;;;72.35;37.55;;;;;;;;;;5108327;28;20226;-64
2023/12/18 04:37:56;;;;;;;65.85;31.30;;;;;;;;;;5034058;28;20344;-66
2023/12/18 04:40:24;;;;;;;59.53;29.23;;;;;;;;;;5034384;28;20265;-64
2023/12/18 04:42:55;;;;;;;57.85;28.77;;;;;;;;;;5034019;28;20222;-65
2023/12/18 04:45:23;;;;;;;55.97;29.05;;;;;;;;;;5033986;28;20250;-64
2023/12/18 04:47:51;;;;;;;56.45;27.38;;;;;;;;;;5033740;28;20214;-67
2023/12/18 04:50:20;;;;;;;53.83;28.38;;;;;;;;;;5040843;28;20214;-64
2023/12/18 04:52:48;;;;;;;61.67;29.20;;;;;;;;;;5013950;28;20215;-65
2023/12/18 04:55:16;;;;;;;62.42;27.30;;;;;;;;;;5014621;28;20229;-63
2023/12/18 04:57:44;;;;;;;58.92;27.83;;;;;;;;;;5013513;28;20230;-65
2023/12/18 05:00:14;;;;;;;61.40;31.05;;;;;;;;;;5013959;28;20247;-66
2023/12/18 05:02:42;;;;;;;70.93;30.35;;;;;;;;;;5012850;28;20314;-64
2023/12/18 05:05:11;;;;;;;58.92;29.85;;;;;;;;;;5013731;28;20234;-67
2023/12/18 05:07:39;;;;;;;62.00;28.80;;;;;;;;;;5034524;28;20257;-64
2023/12/18 05:10:08;;;;;;;58.63;29.23;;;;;;;;;;5022688;28;20213;-68
2023/12/18 05:12:36;;;;;;;69.45;30.85;;;;;;;;;;5035952;28;20212;-67
2023/12/18 05:15:10;;;;;;;64.18;28.20;;;;;;;;;;5012638;28;20218;-78
2023/12/18 05:17:41;;;;;;;53.17;27.35;;;;;;;;;;5012657;28;20190;-81
2023/12/18 05:20:12;;;;;;;58.40;28.42;;;;;;;;;;5013511;28;20190;-80
2023/12/18 05:22:40;;;;;;;62.67;26.65;;;;;;;;;;5012888;28;20178;-81
2023/12/18 05:25:10;;;;;;;54.22;28.30;;;;;;;;;;5005878;28;20250;-82
2023/12/18 05:27:38;;;;;;;62.15;29.98;;;;;;;;;;4995349;28;20206;-81
2023/12/18 05:30:07;;;;;;;52.10;26.95;;;;;;;;;;5012154;28;20214;-83
2023/12/18 05:32:36;;;;;;;51.50;26.35;;;;;;;;;;5014373;28;20675;-81
2023/12/18 05:35:09;;;;;;;49.10;24.98;;;;;;;;;;5013503;28;20202;-81
2023/12/18 05:37:37;;;;;;;57.10;27.13;;;;;;;;;;5013932;28;20187;-80
2023/12/18 05:40:09;;;;;;;53.80;26.98;;;;;;;;;;4997109;28;20524;-81
2023/12/18 05:42:37;;;;;;;56.33;28.27;;;;;;;;;;5013773;28;20205;-81
2023/12/18 05:45:08;;;;;;;54.60;26.25;;;;;;;;;;4995884;28;20222;-81
2023/12/18 05:47:38;;;;;;;49.13;25.40;;;;;;;;;;4996209;28;20190;-81
2023/12/18 05:50:08;;;;;;;52.60;26.25;;;;;;;;;;4996284;28;20239;-81
2023/12/18 05:52:39;;;;;;;57.03;25.55;;;;;;;;;;4996157;28;20204;-81
2023/12/18 05:55:09;;;;;;;56.78;26.75;;;;;;;;;;5013619;28;20701;-81
2023/12/18 05:57:38;;;;;;;49.25;25.58;;;;;;;;;;4995678;28;20364;-80
2023/12/18 06:00:07;;;;;;;54.00;27.80;;;;;;;;;;5013785;28;20725;-81
2023/12/18 06:02:35;;;;;;;52.13;25.95;;;;;;;;;;5014177;28;20202;-81
2023/12/18 06:05:05;;;;;;;48.65;26.20;;;;;;;;;;4992475;23;20575;-67
2023/12/18 06:07:35;;;;;;;48.55;25.17;;;;;;;;;;4986482;28;20653;-67
2023/12/18 06:10:04;;;;;;;54.95;26.70;;;;;;;;;;4990483;28;20661;-67
2023/12/18 06:12:32;;;;;;;46.90;25.27;;;;;;;;;;4988344;28;20207;-67
2023/12/18 06:15:01;;;;;;;54.08;26.15;;;;;;;;;;5004165;28;21309;-67
2023/12/18 06:17:29;;;;;;;58.13;27.70;;;;;;;;;;4988974;28;20198;-67
2023/12/18 06:19:57;;;;;;;53.60;27.35;;;;;;;;;;4988594;28;20577;-66
2023/12/18 06:22:26;;;;;;;50.15;23.35;;;;;;;;;;4989653;28;20207;-66
2023/12/18 06:24:55;;;;;;;48.65;23.63;;;;;;;;;;4989531;28;20215;-66
2023/12/18 06:27:24;;;;;;;51.42;25.83;;;;;;;;;;4989123;28;20203;-66
2023/12/18 06:29:52;;;;;;;57.42;26.00;;;;;;;;;;4983950;28;20203;-66
2023/12/18 06:32:20;;;;;;;55.83;28.73;;;;;;;;;;4987243;28;20669;-66
2023/12/18 06:34:48;;;;;;;53.53;25.77;;;;;;;;;;4989197;28;20207;-66
2023/12/18 06:37:16;;;;;;;54.33;28.02;;;;;;;;;;4989492;28;20205;-66
2023/12/18 06:39:44;;;;;;;47.97;24.20;;;;;;;;;;4989160;28;20198;-66
2023/12/18 06:42:14;;;;;;;57.72;29.20;;;;;;;;;;4976496;28;20195;-66
2023/12/18 06:44:43;;;;;;;52.30;25.98;;;;;;;;;;4988455;28;20225;-66
2023/12/18 06:47:11;;;;;;;62.55;26.85;;;;;;;;;;4987835;28;20230;-67
2023/12/18 06:49:39;;;;;;;50.28;25.27;;;;;;;;;;4989151;28;20210;-66
2023/12/18 06:52:07;;;;;;;46.67;25.05;;;;;;;;;;4988150;28;20579;-66
2023/12/18 06:54:36;;;;;;;50.20;23.70;;;;;;;;;;4988666;28;20203;-66
2023/12/18 06:57:05;;;;;;;54.22;27.52;;;;;;;;;;4988298;28;20572;-66
2023/12/18 06:59:34;;;;;;;49.95;28.40;;;;;;;;;;4987034;28;20207;-66
2023/12/18 07:02:03;;;;;;;47.00;27.13;;;;;;;;;;4988010;28;20213;-66
2023/12/18 07:04:31;;;;;;;56.75;25.17;;;;;;;;;;4987977;28;20242;-67
2023/12/18 07:07:00;;;;;;;49.10;25.17;;;;;;;;;;4987730;28;20198;-68
2023/12/18 07:09:28;;;;;;;50.85;25.35;;;;;;;;;;4988178;28;20581;-68
2023/12/18 07:11:56;;;;;;;60.67;28.70;;;;;;;;;;4988099;28;20211;-68
2023/12/18 07:14:25;;;;;;;54.78;27.05;;;;;;;;;;4980511;28;20202;-69
2023/12/18 07:16:54;;;;;;;41.60;23.20;;;;;;;;;;4978516;28;20215;-69
2023/12/18 07:19:23;;;;;;;46.70;24.80;;;;;;;;;;4974810;28;20199;-69
2023/12/18 07:21:51;;;;;;;48.15;25.70;;;;;;;;;;4971881;28;20216;-69
2023/12/18 07:24:19;;;;;;;57.67;26.58;;;;;;;;;;4988871;28;20243;-69
2023/12/18 07:26:47;;;;;;;53.80;26.30;;;;;;;;;;4970383;28;20218;-70
2023/12/18 07:29:15;;;;;;;49.25;26.42;;;;;;;;;;4971620;28;20211;-68
2023/12/18 07:31:44;;;;;;;47.35;24.92;;;;;;;;;;4988036;28;20688;-69
2023/12/18 07:34:13;;;;;;;52.28;26.38;;;;;;;;;;4988407;28;20203;-69
2023/12/18 07:36:42;;;;;;;45.75;25.55;;;;;;;;;;4988851;28;20205;-69
2023/12/18 07:39:10;;;;;;;48.33;26.00;;;;;;;;;;4988092;28;20203;-69
2023/12/18 07:41:39;;;;;;;50.60;24.40;;;;;;;;;;4988219;28;20227;-69
2023/12/18 07:44:07;;;;;;;64.55;25.52;;;;;;;;;;4979717;28;20276;-69
2023/12/18 07:46:35;;;;;;;58.47;25.75;;;;;;;;;;4972478;28;20217;-69
2023/12/18 07:49:04;;;;;;;76.13;26.65;;;;;;;;;;4971517;28;20213;-68
2023/12/18 07:51:34;;;;;;;53.17;25.88;;;;;;;;;;4988611;28;20217;-69
2023/12/18 07:54:03;;;;;;;61.28;24.33;;;;;;;;;;4988730;28;20213;-68
2023/12/18 07:56:31;;;;;;;66.97;24.85;;;;;;;;;;4984185;28;20624;-68
2023/12/18 07:59:00;;;;;;;66.22;24.85;;;;;;;;;;4976852;28;20573;-68
2023/12/18 08:01:28;;;;;;;103.13;29.15;;;;;;;;;;4975070;28;20268;-68
2023/12/18 08:03:56;;;;;;;76.80;28.08;;;;;;;;;;4972644;28;20245;-68
2023/12/18 08:06:25;;;;;;;81.38;23.85;;;;;;;;;;4986963;28;20215;-68
2023/12/18 08:08:54;;;;;;;109.63;23.95;;;;;;;;;;4971089;28;20229;-69
2023/12/18 08:11:22;;;;;;;48.90;22.92;;;;;;;;;;4987126;28;20272;-70
2023/12/18 08:13:51;;;;;;;91.63;25.80;;;;;;;;;;4976210;28;20211;-69
2023/12/18 08:16:19;;;;;;;90.15;25.88;;;;;;;;;;4987505;28;20194;-69
2023/12/18 08:18:47;;;;;;;59.72;23.65;;;;;;;;;;4959889;28;20640;-69
2023/12/18 08:21:16;;;;;;;59.75;25.10;;;;;;;;;;4983020;28;20199;-69
2023/12/18 08:23:45;;;;;;;107.68;26.90;;;;;;;;;;4970246;28;20681;-69
2023/12/18 08:26:15;;;;;;;73.25;25.48;;;;;;;;;;4985295;28;20571;-69
2023/12/18 08:28:44;;;;;;;52.03;23.10;;;;;;;;;;4973578;28;20249;-69
2023/12/18 08:31:12;;;;;;;71.50;23.42;;;;;;;;;;4976672;28;20195;-69
2023/12/18 08:33:40;;;;;;;89.18;24.70;;;;;;;;;;4968547;28;20272;-69
2023/12/18 08:36:08;;;;;;;85.97;25.73;;;;;;;;;;4986695;28;20207;-69
2023/12/18 08:38:37;;;;;;;81.28;24.00;;;;;;;;;;4990744;28;20225;-69
2023/12/18 08:41:05;;;;;;;63.35;24.65;;;;;;;;;;4991375;28;20206;-69
2023/12/18 08:43:35;;;;;;;96.78;25.27;;;;;;;;;;4989007;28;20212;-68
2023/12/18 08:46:03;;;;;;;88.32;24.92;;;;;;;;;;4979408;28;20249;-67
2023/12/18 08:48:31;;;;;;;122.43;28.08;;;;;;;;;;4974881;28;20695;-67
2023/12/18 08:51:00;;;;;;;73.40;25.70;;;;;;;;;;4991164;28;20207;-68
2023/12/18 08:53:28;;;;;;;122.82;27.63;;;;;;;;;;4989621;28;20244;-67
2023/12/18 08:55:57;;;;;;;75.47;23.83;;;;;;;;;;4991403;28;20191;-67
2023/12/18 08:58:25;;;;;;;85.38;23.65;;;;;;;;;;4990437;28;20199;-67
2023/12/18 09:00:54;;;;;;;52.58;23.85;;;;;;;;;;4987429;28;20199;-67
2023/12/18 09:03:23;;;;;;;60.88;23.60;;;;;;;;;;4989400;28;20213;-66
2023/12/18 09:05:51;;;;;;;58.38;22.42;;;;;;;;;;4978195;28;20237;-68
2023/12/18 09:08:19;;;;;;;39.75;23.45;;;;;;;;;;4989585;28;20201;-67
2023/12/18 09:10:47;;;;;;;48.13;21.05;;;;;;;;;;4991721;28;20198;-68
2023/12/18 09:13:16;;;;;;;39.50;22.65;;;;;;;;;;4989247;28;20557;-68
2023/12/18 09:15:44;;;;;;;44.25;22.92;;;;;;;;;;4990534;28;20569;-68
2023/12/18 09:18:16;;;;;;;44.08;21.30;;;;;;;;;;4974465;28;20555;-68
2023/12/18 09:20:44;;;;;;;39.45;20.70;;;;;;;;;;4973194;28;20209;-68
2023/12/18 09:23:12;;;;;;;38.92;20.90;;;;;;;;;;4971307;28;20200;-68
2023/12/18 09:25:41;;;;;;;40.03;21.35;;;;;;;;;;4976953;28;20206;-68
2023/12/18 09:28:09;;;;;;;37.08;22.25;;;;;;;;;;4983120;28;20205;-68
2023/12/18 09:30:38;;;;;;;36.00;22.58;;;;;;;;;;4989284;28;20209;-68
2023/12/18 09:33:07;;;;;;;43.67;23.30;;;;;;;;;;4986371;28;20665;-68
2023/12/18 09:35:36;;;;;;;37.90;24.30;;;;;;;;;;4989883;28;20676;-68
2023/12/18 09:38:05;;;;;;;32.47;20.70;;;;;;;;;;4988283;28;20239;-68
2023/12/18 09:40:33;;;;;;;34.03;21.10;;;;;;;;;;4990022;28;20675;-67
2023/12/18 09:43:03;;;;;;;34.97;20.88;;;;;;;;;;4989438;28;20211;-67
2023/12/18 09:45:32;;;;;;;32.72;21.55;;;;;;;;;;4986541;28;20229;-67
2023/12/18 09:48:00;;;;;;;31.35;20.30;;;;;;;;;;4996118;28;20236;-67
2023/12/18 09:50:29;;;;;;;31.63;20.10;;;;;;;;;;4975675;28;21260;-66
2023/12/18 09:53:03;;;;;;;33.08;21.08;;;;;;;;;;4987540;28;20210;-68
2023/12/18 09:55:32;;;;;;;34.45;20.35;;;;;;;;;;4988484;28;20581;-67
2023/12/18 09:58:02;;;;;;;28.52;19.50;;;;;;;;;;4982218;28;20199;-67
2023/12/18 10:00:30;;;;;;;32.60;21.45;;;;;;;;;;4989512;28;20636;-67
2023/12/18 10:03:00;;;;;;;30.50;18.77;;;;;;;;;;4987382;28;20207;-67
2023/12/18 10:05:28;;;;;;;27.20;19.58;;;;;;;;;;4987526;28;20241;-66
2023/12/18 10:07:56;;;;;;;31.25;19.52;;;;;;;;;;4988101;28;20220;-69
2023/12/18 10:10:26;;;;;;;30.88;19.50;;;;;;;;;;4988330;28;20228;-67
2023/12/18 10:12:55;;;;;;;25.30;18.08;;;;;;;;;;4979861;28;20220;-67
2023/12/18 10:15:23;;;;;;;23.05;17.67;;;;;;;;;;4986661;28;20210;-66
2023/12/18 10:17:51;;;;;;;24.40;18.95;;;;;;;;;;4987783;28;20199;-67
2023/12/18 10:20:20;;;;;;;21.67;16.05;;;;;;;;;;4987545;28;20217;-66
2023/12/18 10:22:48;;;;;;;27.40;17.08;;;;;;;;;;4989142;28;20568;-67
2023/12/18 10:25:16;;;;;;;23.60;17.75;;;;;;;;;;4988381;28;20211;-66
2023/12/18 10:27:47;;;;;;;20.95;16.63;;;;;;;;;;4988648;28;20229;-67
2023/12/18 10:30:15;;;;;;;24.42;17.92;;;;;;;;;;4987610;28;20197;-67
2023/12/18 10:32:43;;;;;;;21.85;15.35;;;;;;;;;;4987637;28;20195;-66
2023/12/18 10:35:13;;;;;;;19.80;16.38;;;;;;;;;;4987466;28;20210;-68
2023/12/18 10:37:43;;;;;;;21.48;15.98;;;;;;;;;;4971317;28;20699;-67
2023/12/18 10:40:12;;;;;;;20.95;14.90;;;;;;;;;;4987758;28;20191;-68
2023/12/18 10:42:45;;;;;;;17.15;14.00;;;;;;;;;;4988167;28;20207;-68
2023/12/18 10:45:15;;;;;;;18.55;13.63;;;;;;;;;;4987295;28;20215;-67
2023/12/18 10:47:45;;;;;;;17.65;14.27;;;;;;;;;;4966218;28;20256;-67
2023/12/18 10:50:13;;;;;;;16.85;13.57;;;;;;;;;;4984869;28;20209;-68
2023/12/18 10:52:42;;;;;;;14.18;12.13;;;;;;;;;;4987331;28;20669;-67
2023/12/18 10:55:11;;;;;;;14.45;12.20;;;;;;;;;;4986977;28;20229;-67
2023/12/18 10:57:42;;;;;;;15.05;11.98;;;;;;;;;;4971092;28;20207;-67
2023/12/18 11:00:14;;;;;;;15.65;11.73;;;;;;;;;;4972942;28;20839;-66
2023/12/18 11:02:44;;;;;;;16.83;13.10;;;;;;;;;;4987306;28;20198;-68
2023/12/18 11:05:14;;;;;;;13.07;11.18;;;;;;;;;;4968549;28;20234;-67
2023/12/18 11:07:42;;;;;;;11.15;10.02;;;;;;;;;;4988074;28;20225;-66
2023/12/18 11:10:11;;;;;;;12.32;11.07;;;;;;;;;;4970180;28;20215;-68
2023/12/18 11:12:40;;;;;;;16.17;11.98;;;;;;;;;;4988023;28;20225;-67
2023/12/18 11:15:12;;;;;;;13.32;10.70;;;;;;;;;;4986139;28;20201;-69
2023/12/18 11:17:42;;;;;;;13.13;10.88;;;;;;;;;;4985707;28;20195;-67
2023/12/18 11:20:18;;;;;;;14.23;12.63;;;;;;;;;;4987046;28;20624;-68
2023/12/18 11:22:46;;;;;;;15.95;11.50;;;;;;;;;;4987529;28;20255;-67
2023/12/18 11:25:15;;;;;;;12.20;10.75;;;;;;;;;;4970550;28;20218;-67
2023/12/18 11:27:43;;;;;;;15.40;10.40;;;;;;;;;;4972803;28;20229;-67
2023/12/18 11:30:25;;;;;;;12.15;10.43;;;;;;;;;;4987318;28;20278;-68
2023/12/18 11:32:53;;;;;;;19.48;11.90;;;;;;;;;;4987186;28;20202;-67
2023/12/18 11:35:28;;;;;;;11.98;10.70;;;;;;;;;;4987012;28;20203;-67
2023/12/18 11:38:01;;;;;;;12.85;10.93;;;;;;;;;;4986269;28;20197;-67
2023/12/18 11:40:40;;;;;;;13.00;11.25;;;;;;;;;;4987041;28;20193;-67
2023/12/18 11:43:08;;;;;;;12.65;11.45;;;;;;;;;;4981835;28;20201;-67
2023/12/18 11:45:38;;;;;;;11.85;10.63;;;;;;;;;;4987115;28;20549;-65
2023/12/18 11:48:07;;;;;;;12.75;11.45;;;;;;;;;;4986621;28;20218;-67
2023/12/18 11:50:38;;;;;;;12.10;10.93;;;;;;;;;;4972151;28;20202;-67
2023/12/18 11:53:09;;;;;;;11.50;10.25;;;;;;;;;;4990595;28;20567;-67
2023/12/18 11:55:44;;;;;;;12.95;11.70;;;;;;;;;;4987391;28;20206;-65
2023/12/18 11:58:12;;;;;;;13.60;11.77;;;;;;;;;;4986192;28;20198;-69
2023/12/18 12:00:41;;;;;;;26.73;13.50;;;;;;;;;;5004384;28;20632;-69
2023/12/18 12:03:10;;;;;;;15.33;14.03;;;;;;;;;;4983822;28;20640;-68
2023/12/18 12:05:40;;;;;;;14.90;13.80;;;;;;;;;;4994735;28;20659;-68
2023/12/18 12:08:09;;;;;;;15.57;14.07;;;;;;;;;;4976355;28;20649;-67
2023/12/18 12:10:41;;;;;;;14.90;13.40;;;;;;;;;;4995842;28;20981;-68
2023/12/18 12:13:17;;;;;;;13.70;12.70;;;;;;;;;;4989488;28;20606;-67
2023/12/18 12:15:56;;;;;;;14.37;13.30;;;;;;;;;;4983389;28;21384;-69
2023/12/18 12:18:25;;;;;;;16.50;15.03;;;;;;;;;;5001884;28;20598;-67
2023/12/18 12:20:54;;;;;;;14.23;13.23;;;;;;;;;;4987777;28;21216;-69
2023/12/18 12:23:23;;;;;;;14.37;13.17;;;;;;;;;;4990899;28;20626;-69
2023/12/18 12:25:52;;;;;;;15.23;14.10;;;;;;;;;;4987871;28;20686;-69
2023/12/18 12:28:21;;;;;;;16.30;15.00;;;;;;;;;;4973622;28;21011;-70
2023/12/18 12:30:49;;;;;;;14.50;13.60;;;;;;;;;;5006182;28;20954;-70
2023/12/18 12:33:17;;;;;;;15.37;14.27;;;;;;;;;;4996836;28;20614;-70
2023/12/18 12:35:46;;;;;;;13.87;12.90;;;;;;;;;;4965232;28;21438;-68
2023/12/18 12:38:17;;;;;;;15.30;14.07;;;;;;;;;;4986703;28;20622;-70
2023/12/18 12:40:46;;;;;;;15.77;14.60;;;;;;;;;;4979634;28;20594;-70
2023/12/18 12:43:15;;;;;;;15.53;14.03;;;;;;;;;;4997246;28;20626;-69
2023/12/18 12:45:44;;;;;;;15.40;14.20;;;;;;;;;;4992567;28;21400;-69
2023/12/18 12:48:13;;;;;;;16.07;14.67;;;;;;;;;;4974077;28;20279;-68
2023/12/18 12:50:43;;;;;;;16.27;14.90;;;;;;;;;;4989681;28;20626;-68
2023/12/18 12:53:11;;;;;;;15.97;14.47;;;;;;;;;;4989883;28;20662;-68
2023/12/18 12:55:42;;;;;;;16.00;14.47;;;;;;;;;;4989640;28;20678;-70
2023/12/18 12:58:11;;;;;;;16.13;14.73;;;;;;;;;;4990156;28;20608;-70
2023/12/18 13:00:39;;;;;;;16.10;14.67;;;;;;;;;;4989791;28;20640;-69
2023/12/18 13:03:07;;;;;;;15.80;14.17;;;;;;;;;;5002613;28;20629;-69
2023/12/18 13:05:37;;;;;;;15.53;14.30;;;;;;;;;;4988837;28;20653;-68
2023/12/18 13:08:05;;;;;;;15.20;14.13;;;;;;;;;;4971809;28;21205;-71
2023/12/18 13:10:33;;;;;;;15.33;14.33;;;;;;;;;;4989777;28;20618;-72
2023/12/18 13:13:03;;;;;;;15.70;14.60;;;;;;;;;;4989285;28;20634;-70
2023/12/18 13:15:31;;;;;;;15.13;14.13;;;;;;;;;;4972602;28;21057;-70
2023/12/18 13:17:59;;;;;;;17.30;13.10;;;;;;;;;;4989630;28;20625;-69
2023/12/18 13:20:27;;;;;;;13.93;12.50;;;;;;;;;;4989738;28;21205;-67
2023/12/18 13:22:56;;;;;;;13.17;11.97;;;;;;;;;;4988890;28;20625;-67
2023/12/18 13:25:24;;;;;;;12.40;11.50;;;;;;;;;;4989672;28;21034;-68
2023/12/18 13:27:53;;;;;;;12.20;11.27;;;;;;;;;;4989597;28;20721;-67
2023/12/18 13:30:23;;;;;;;9.98;9.13;;;;;;;;;;4989581;28;21059;-69
2023/12/18 13:32:52;;;;;;;12.27;10.30;;;;;;;;;;4973020;28;20677;-69
2023/12/18 13:35:20;;;;;;;10.10;9.20;;;;;;;;;;4990072;28;20203;-70
2023/12/18 13:37:49;;;;;;;9.52;8.73;;;;;;;;;;4971617;28;20199;-69
2023/12/18 13:40:17;;;;;;;9.07;8.38;;;;;;;;;;4975710;28;20211;-68
2023/12/18 13:42:47;;;;;;;8.93;8.23;;;;;;;;;;4987685;28;20203;-70
2023/12/18 13:45:15;;;;;;;11.82;9.77;;;;;;;;;;4988443;28;20240;-68
2023/12/18 13:47:45;;;;;;;10.55;9.55;;;;;;;;;;5009372;28;20268;-68
2023/12/18 13:50:13;;;;;;;9.38;8.48;;;;;;;;;;5022135;28;20203;-69
2023/12/18 13:52:42;;;;;;;9.32;8.50;;;;;;;;;;5013773;28;20204;-69
2023/12/18 13:55:10;;;;;;;8.68;7.85;;;;;;;;;;5018893;28;20201;-69
2023/12/18 13:57:38;;;;;;;9.02;8.23;;;;;;;;;;4986908;28;20208;-69
2023/12/18 14:00:08;;;;;;;8.77;7.90;;;;;;;;;;4972170;28;20587;-69
2023/12/18 14:02:37;;;;;;;8.40;7.70;;;;;;;;;;4985392;28;20199;-70
2023/12/18 14:05:06;;;;;;;8.90;7.85;;;;;;;;;;4988118;28;20243;-69
2023/12/18 14:07:36;;;;;;;9.05;7.68;;;;;;;;;;4975226;28;20584;-70
2023/12/18 14:10:07;;;;;;;10.27;8.88;;;;;;;;;;4988870;28;20210;-69
2023/12/18 14:12:35;;;;;;;12.23;8.77;;;;;;;;;;4988911;28;20203;-69
2023/12/18 14:15:03;;;;;;;8.93;8.10;;;;;;;;;;4987836;28;20263;-69
2023/12/18 14:17:32;;;;;;;8.98;8.18;;;;;;;;;;4981009;28;20207;-70
2023/12/18 14:20:03;;;;;;;9.43;8.32;;;;;;;;;;4989004;28;20203;-70
2023/12/18 14:22:33;;;;;;;8.52;7.85;;;;;;;;;;4984909;28;20243;-67
2023/12/18 14:25:02;;;;;;;9.20;8.30;;;;;;;;;;4988747;28;20245;-69
2023/12/18 14:27:31;;;;;;;8.77;7.90;;;;;;;;;;4988790;28;20220;-69